sensor_id;sensor_type;location;lat;lon;timestamp;pressure;altitude;pressure_sealevel;temperature;humidity
39715;BME280;54166;53.172;-6.552;2022-11-12T00:01:06;99572.04;;;19.25;43.15
39715;BME280;54166;53.172;-6.552;2022-11-12T00:03:34;99571.11;;;19.67;42.93
39715;BME280;54166;53.172;-6.552;2022-11-12T00:06:01;99574.27;;;19.29;42.97
39715;BME280;54166;53.172;-6.552;2022-11-12T00:08:28;99568.29;;;19.68;42.83
39715;BME280;54166;53.172;-6.552;2022-11-12T00:10:54;99568.81;;;19.32;42.81
39715;BME280;54166;53.172;-6.552;2022-11-12T00:13:21;99567.20;;;19.29;42.84
39715;BME280;54166;53.172;-6.552;2022-11-12T00:15:49;99566.31;;;19.25;42.86
39715;BME280;54166;53.172;-6.552;2022-11-12T00:18:17;99565.80;;;19.60;42.80
39715;BME280;54166;53.172;-6.552;2022-11-12T00:20:44;99561.51;;;19.23;42.79
39715;BME280;54166;53.172;-6.552;2022-11-12T00:23:11;99556.40;;;19.87;42.78
39715;BME280;54166;53.172;-6.552;2022-11-12T00:25:38;99553.58;;;19.53;42.78
39715;BME280;54166;53.172;-6.552;2022-11-12T00:28:07;99552.90;;;19.19;42.76
39715;BME280;54166;53.172;-6.552;2022-11-12T00:30:38;99551.88;;;19.84;42.75
39715;BME280;54166;53.172;-6.552;2022-11-12T00:33:06;99543.96;;;19.50;42.72
39715;BME280;54166;53.172;-6.552;2022-11-12T00:35:34;99549.82;;;19.16;42.93
39715;BME280;54166;53.172;-6.552;2022-11-12T00:38:06;99552.92;;;19.53;42.86
39715;BME280;54166;53.172;-6.552;2022-11-12T00:40:33;99548.64;;;19.51;42.80
39715;BME280;54166;53.172;-6.552;2022-11-12T00:43:00;99548.05;;;19.83;42.83
39715;BME280;54166;53.172;-6.552;2022-11-12T00:45:27;99554.53;;;19.83;42.77
39715;BME280;54166;53.172;-6.552;2022-11-12T00:47:54;99554.99;;;19.48;42.73
39715;BME280;54166;53.172;-6.552;2022-11-12T00:50:24;99552.84;;;19.47;42.72
39715;BME280;54166;53.172;-6.552;2022-11-12T00:52:54;99550.25;;;19.11;42.74
39715;BME280;54166;53.172;-6.552;2022-11-12T00:55:21;99551.96;;;19.11;42.70
39715;BME280;54166;53.172;-6.552;2022-11-12T00:57:49;99544.67;;;19.11;42.67
39715;BME280;54166;53.172;-6.552;2022-11-12T01:00:18;99547.42;;;19.43;42.66
39715;BME280;54166;53.172;-6.552;2022-11-12T01:02:45;99546.04;;;19.09;42.64
39715;BME280;54166;53.172;-6.552;2022-11-12T01:05:13;99551.71;;;19.09;42.63
39715;BME280;54166;53.172;-6.552;2022-11-12T01:07:40;99553.74;;;19.75;42.62
39715;BME280;54166;53.172;-6.552;2022-11-12T01:10:09;99553.82;;;19.45;42.59
39715;BME280;54166;53.172;-6.552;2022-11-12T01:12:36;99551.12;;;19.08;42.62
39715;BME280;54166;53.172;-6.552;2022-11-12T01:15:05;99547.23;;;19.07;42.62
39715;BME280;54166;53.172;-6.552;2022-11-12T01:17:32;99547.42;;;19.05;42.62
39715;BME280;54166;53.172;-6.552;2022-11-12T01:20:00;99541.25;;;19.72;42.62
39715;BME280;54166;53.172;-6.552;2022-11-12T01:22:28;99537.28;;;19.04;42.61
39715;BME280;54166;53.172;-6.552;2022-11-12T01:24:55;99535.31;;;19.71;42.62
39715;BME280;54166;53.172;-6.552;2022-11-12T01:27:21;99530.96;;;19.37;42.61
39715;BME280;54166;53.172;-6.552;2022-11-12T01:29:48;99526.13;;;19.36;42.63
39715;BME280;54166;53.172;-6.552;2022-11-12T01:32:15;99521.55;;;19.35;42.66
39715;BME280;54166;53.172;-6.552;2022-11-12T01:34:42;99525.01;;;19.36;42.64
39715;BME280;54166;53.172;-6.552;2022-11-12T01:37:10;99533.81;;;19.35;42.62
39715;BME280;54166;53.172;-6.552;2022-11-12T01:39:37;99526.71;;;19.35;42.60
39715;BME280;54166;53.172;-6.552;2022-11-12T01:42:03;99520.89;;;19.66;42.63
39715;BME280;54166;53.172;-6.552;2022-11-12T01:44:34;99516.69;;;19.66;42.62
39715;BME280;54166;53.172;-6.552;2022-11-12T01:47:14;99519.19;;;19.32;42.60
39715;BME280;54166;53.172;-6.552;2022-11-12T01:49:46;99519.64;;;19.30;42.66
39715;BME280;54166;53.172;-6.552;2022-11-12T01:52:18;99517.70;;;18.96;42.65
39715;BME280;54166;53.172;-6.552;2022-11-12T01:54:49;99514.14;;;19.28;42.66
39715;BME280;54166;53.172;-6.552;2022-11-12T01:57:23;99518.01;;;18.95;42.64
39715;BME280;54166;53.172;-6.552;2022-11-12T01:59:55;99523.75;;;19.28;42.64
39715;BME280;54166;53.172;-6.552;2022-11-12T02:02:24;99528.07;;;19.28;42.65
39715;BME280;54166;53.172;-6.552;2022-11-12T02:04:53;99527.27;;;19.28;42.63
39715;BME280;54166;53.172;-6.552;2022-11-12T02:07:22;99526.69;;;19.29;42.61
39715;BME280;54166;53.172;-6.552;2022-11-12T02:09:51;99529.88;;;18.95;42.61
39715;BME280;54166;53.172;-6.552;2022-11-12T02:12:18;99522.21;;;19.62;42.58
39715;BME280;54166;53.172;-6.552;2022-11-12T02:14:46;99521.46;;;19.29;42.58
39715;BME280;54166;53.172;-6.552;2022-11-12T02:17:13;99521.98;;;19.27;42.61
39715;BME280;54166;53.172;-6.552;2022-11-12T02:19:41;99524.36;;;19.60;42.59
39715;BME280;54166;53.172;-6.552;2022-11-12T02:24:50;99525.53;;;20.20;43.21
39715;BME280;54166;53.172;-6.552;2022-11-12T02:27:17;99524.99;;;19.35;42.92
39715;BME280;54166;53.172;-6.552;2022-11-12T02:29:45;99520.22;;;19.14;42.74
39715;BME280;54166;53.172;-6.552;2022-11-12T02:32:12;99518.70;;;19.50;42.67
39715;BME280;54166;53.172;-6.552;2022-11-12T02:34:40;99513.15;;;19.52;42.63
39715;BME280;54166;53.172;-6.552;2022-11-12T02:37:07;99510.65;;;19.20;42.60
39715;BME280;54166;53.172;-6.552;2022-11-12T02:39:34;99511.26;;;18.87;42.60
39715;BME280;54166;53.172;-6.552;2022-11-12T02:42:02;99504.22;;;18.87;42.59
39715;BME280;54166;53.172;-6.552;2022-11-12T02:44:30;99500.49;;;19.54;42.61
39715;BME280;54166;53.172;-6.552;2022-11-12T02:46:57;99500.65;;;19.54;42.59
39715;BME280;54166;53.172;-6.552;2022-11-12T02:49:24;99494.54;;;19.54;42.60
39715;BME280;54166;53.172;-6.552;2022-11-12T02:51:51;99489.41;;;19.53;42.57
39715;BME280;54166;53.172;-6.552;2022-11-12T02:54:18;99485.39;;;19.53;42.58
39715;BME280;54166;53.172;-6.552;2022-11-12T02:56:45;99489.22;;;19.19;42.56
39715;BME280;54166;53.172;-6.552;2022-11-12T02:59:12;99489.18;;;18.85;42.60
39715;BME280;54166;53.172;-6.552;2022-11-12T03:01:39;99481.28;;;18.85;42.61
39715;BME280;54166;53.172;-6.552;2022-11-12T03:04:06;99487.89;;;19.18;42.57
39715;BME280;54166;53.172;-6.552;2022-11-12T03:06:34;99493.33;;;19.17;42.61
39715;BME280;54166;53.172;-6.552;2022-11-12T03:09:00;99496.30;;;19.17;42.59
39715;BME280;54166;53.172;-6.552;2022-11-12T03:11:27;99494.96;;;19.51;42.57
39715;BME280;54166;53.172;-6.552;2022-11-12T03:13:54;99492.28;;;19.17;42.59
39715;BME280;54166;53.172;-6.552;2022-11-12T03:16:22;99491.85;;;19.18;42.55
39715;BME280;54166;53.172;-6.552;2022-11-12T03:18:50;99495.79;;;19.17;42.58
39715;BME280;54166;53.172;-6.552;2022-11-12T03:21:17;99497.04;;;19.49;42.59
39715;BME280;54166;53.172;-6.552;2022-11-12T03:23:43;99499.59;;;19.14;42.59
39715;BME280;54166;53.172;-6.552;2022-11-12T03:26:10;99498.96;;;19.49;42.56
39715;BME280;54166;53.172;-6.552;2022-11-12T03:28:37;99501.10;;;19.15;42.51
39715;BME280;54166;53.172;-6.552;2022-11-12T03:31:04;99498.72;;;19.47;42.47
39715;BME280;54166;53.172;-6.552;2022-11-12T03:33:32;99501.98;;;19.13;42.50
39715;BME280;54166;53.172;-6.552;2022-11-12T03:35:59;99498.56;;;19.12;42.43
39715;BME280;54166;53.172;-6.552;2022-11-12T03:38:26;99493.86;;;19.12;42.39
39715;BME280;54166;53.172;-6.552;2022-11-12T03:40:52;99497.63;;;19.45;42.36
39715;BME280;54166;53.172;-6.552;2022-11-12T03:43:19;99500.71;;;19.43;42.34
39715;BME280;54166;53.172;-6.552;2022-11-12T03:45:47;99506.02;;;19.42;42.30
39715;BME280;54166;53.172;-6.552;2022-11-12T03:48:14;99503.17;;;19.42;42.32
39715;BME280;54166;53.172;-6.552;2022-11-12T03:50:41;99507.12;;;19.42;42.33
39715;BME280;54166;53.172;-6.552;2022-11-12T03:53:09;99509.87;;;19.42;42.33
39715;BME280;54166;53.172;-6.552;2022-11-12T03:55:36;99507.20;;;19.40;42.32
39715;BME280;54166;53.172;-6.552;2022-11-12T03:58:03;99504.87;;;19.40;42.33
39715;BME280;54166;53.172;-6.552;2022-11-12T04:00:30;99507.58;;;19.40;42.32
39715;BME280;54166;53.172;-6.552;2022-11-12T04:02:58;99514.18;;;19.04;42.34
39715;BME280;54166;53.172;-6.552;2022-11-12T04:05:26;99498.58;;;19.05;42.36
39715;BME280;54166;53.172;-6.552;2022-11-12T04:07:57;99496.26;;;19.38;42.30
39715;BME280;54166;53.172;-6.552;2022-11-12T04:10:25;99504.60;;;19.36;42.25
39715;BME280;54166;53.172;-6.552;2022-11-12T04:12:52;99504.93;;;19.36;42.22
39715;BME280;54166;53.172;-6.552;2022-11-12T04:15:19;99511.90;;;19.35;42.19
39715;BME280;54166;53.172;-6.552;2022-11-12T04:17:47;99509.48;;;19.02;42.21
39715;BME280;54166;53.172;-6.552;2022-11-12T04:20:14;99513.65;;;19.33;42.18
39715;BME280;54166;53.172;-6.552;2022-11-12T04:22:41;99515.77;;;19.31;42.19
39715;BME280;54166;53.172;-6.552;2022-11-12T04:25:08;99515.49;;;18.96;42.17
39715;BME280;54166;53.172;-6.552;2022-11-12T04:27:35;99514.06;;;18.97;42.14
39715;BME280;54166;53.172;-6.552;2022-11-12T04:30:02;99510.50;;;18.63;42.17
39715;BME280;54166;53.172;-6.552;2022-11-12T04:32:31;99510.23;;;19.29;42.20
39715;BME280;54166;53.172;-6.552;2022-11-12T04:34:59;99511.96;;;19.28;42.14
39715;BME280;54166;53.172;-6.552;2022-11-12T04:37:29;99510.14;;;18.97;42.09
39715;BME280;54166;53.172;-6.552;2022-11-12T04:39:57;99508.65;;;19.28;42.15
39715;BME280;54166;53.172;-6.552;2022-11-12T04:42:24;99514.22;;;19.26;42.18
39715;BME280;54166;53.172;-6.552;2022-11-12T04:44:51;99515.04;;;18.94;42.18
39715;BME280;54166;53.172;-6.552;2022-11-12T04:47:18;99519.92;;;19.27;42.19
39715;BME280;54166;53.172;-6.552;2022-11-12T04:49:45;99517.21;;;19.27;42.20
39715;BME280;54166;53.172;-6.552;2022-11-12T04:52:12;99519.75;;;19.28;42.19
39715;BME280;54166;53.172;-6.552;2022-11-12T04:54:39;99517.60;;;18.94;42.19
39715;BME280;54166;53.172;-6.552;2022-11-12T04:57:06;99510.19;;;19.29;42.16
39715;BME280;54166;53.172;-6.552;2022-11-12T04:59:33;99506.27;;;19.29;42.16
39715;BME280;54166;53.172;-6.552;2022-11-12T05:02:00;99510.40;;;19.28;42.14
39715;BME280;54166;53.172;-6.552;2022-11-12T05:04:28;99505.89;;;18.94;42.15
39715;BME280;54166;53.172;-6.552;2022-11-12T05:06:55;99507.61;;;19.28;42.18
39715;BME280;54166;53.172;-6.552;2022-11-12T05:09:25;99499.01;;;19.27;42.16
39715;BME280;54166;53.172;-6.552;2022-11-12T05:11:53;99495.77;;;19.26;42.17
39715;BME280;54166;53.172;-6.552;2022-11-12T05:14:21;99499.49;;;18.92;42.15
39715;BME280;54166;53.172;-6.552;2022-11-12T05:16:48;99492.39;;;19.25;42.17
39715;BME280;54166;53.172;-6.552;2022-11-12T05:19:17;99494.09;;;19.26;42.15
39715;BME280;54166;53.172;-6.552;2022-11-12T05:21:44;99486.52;;;18.91;42.14
39715;BME280;54166;53.172;-6.552;2022-11-12T05:24:12;99484.84;;;18.91;42.19
39715;BME280;54166;53.172;-6.552;2022-11-12T05:26:39;99496.04;;;19.24;42.18
39715;BME280;54166;53.172;-6.552;2022-11-12T05:29:07;99501.84;;;19.24;42.18
39715;BME280;54166;53.172;-6.552;2022-11-12T05:31:35;99501.17;;;19.23;42.21
39715;BME280;54166;53.172;-6.552;2022-11-12T05:34:02;99499.05;;;18.89;42.19
39715;BME280;54166;53.172;-6.552;2022-11-12T05:36:29;99501.84;;;19.23;42.19
39715;BME280;54166;53.172;-6.552;2022-11-12T05:38:56;99499.48;;;19.23;42.15
39715;BME280;54166;53.172;-6.552;2022-11-12T05:41:24;99492.57;;;19.23;42.10
39715;BME280;54166;53.172;-6.552;2022-11-12T05:43:51;99490.81;;;19.23;42.10
39715;BME280;54166;53.172;-6.552;2022-11-12T05:46:19;99493.62;;;18.89;42.06
39715;BME280;54166;53.172;-6.552;2022-11-12T05:48:47;99497.67;;;19.21;42.04
39715;BME280;54166;53.172;-6.552;2022-11-12T05:51:14;99506.92;;;19.20;42.01
39715;BME280;54166;53.172;-6.552;2022-11-12T05:53:41;99503.75;;;19.20;42.00
39715;BME280;54166;53.172;-6.552;2022-11-12T05:56:10;99496.43;;;18.86;42.03
39715;BME280;54166;53.172;-6.552;2022-11-12T05:58:37;99492.30;;;19.19;42.04
39715;BME280;54166;53.172;-6.552;2022-11-12T06:01:05;99485.37;;;19.19;42.02
39715;BME280;54166;53.172;-6.552;2022-11-12T06:03:33;99480.88;;;19.20;42.04
39715;BME280;54166;53.172;-6.552;2022-11-12T06:06:01;99482.48;;;18.85;42.04
39715;BME280;54166;53.172;-6.552;2022-11-12T06:08:28;99479.53;;;18.84;42.02
39715;BME280;54166;53.172;-6.552;2022-11-12T06:10:55;99481.73;;;19.17;42.04
39715;BME280;54166;53.172;-6.552;2022-11-12T06:13:24;99475.95;;;18.84;42.03
39715;BME280;54166;53.172;-6.552;2022-11-12T06:15:53;99472.20;;;19.18;42.03
39715;BME280;54166;53.172;-6.552;2022-11-12T06:18:21;99467.79;;;19.17;41.98
39715;BME280;54166;53.172;-6.552;2022-11-12T06:20:49;99461.53;;;18.84;41.91
39715;BME280;54166;53.172;-6.552;2022-11-12T06:23:17;99461.35;;;19.17;41.92
39715;BME280;54166;53.172;-6.552;2022-11-12T06:25:44;99455.70;;;19.17;41.94
39715;BME280;54166;53.172;-6.552;2022-11-12T06:28:12;99452.85;;;18.89;41.88
39715;BME280;54166;53.172;-6.552;2022-11-12T06:30:39;99449.22;;;19.23;41.84
39715;BME280;54166;53.172;-6.552;2022-11-12T06:33:06;99449.87;;;19.20;41.86
39715;BME280;54166;53.172;-6.552;2022-11-12T06:35:33;99448.14;;;19.18;41.88
39715;BME280;54166;53.172;-6.552;2022-11-12T06:38:00;99450.75;;;19.17;41.86
39715;BME280;54166;53.172;-6.552;2022-11-12T06:40:27;99450.86;;;19.16;41.90
39715;BME280;54166;53.172;-6.552;2022-11-12T06:42:56;99452.16;;;19.16;41.85
39715;BME280;54166;53.172;-6.552;2022-11-12T06:45:23;99451.42;;;19.55;41.85
39715;BME280;54166;53.172;-6.552;2022-11-12T06:47:51;99461.80;;;18.81;41.85
39715;BME280;54166;53.172;-6.552;2022-11-12T06:50:18;99462.51;;;19.15;41.87
39715;BME280;54166;53.172;-6.552;2022-11-12T06:52:45;99467.21;;;18.81;41.88
39715;BME280;54166;53.172;-6.552;2022-11-12T06:55:13;99470.52;;;19.14;41.90
39715;BME280;54166;53.172;-6.552;2022-11-12T06:57:40;99466.56;;;19.13;41.89
39715;BME280;54166;53.172;-6.552;2022-11-12T07:00:08;99460.80;;;18.79;41.90
39715;BME280;54166;53.172;-6.552;2022-11-12T07:02:36;99467.22;;;19.11;41.88
39715;BME280;54166;53.172;-6.552;2022-11-12T07:05:04;99471.03;;;18.79;41.84
39715;BME280;54166;53.172;-6.552;2022-11-12T07:07:31;99472.21;;;19.11;41.84
39715;BME280;54166;53.172;-6.552;2022-11-12T07:09:58;99469.15;;;18.80;41.80
39715;BME280;54166;53.172;-6.552;2022-11-12T07:12:25;99470.31;;;18.80;41.80
39715;BME280;54166;53.172;-6.552;2022-11-12T07:14:52;99476.14;;;19.13;41.82
39715;BME280;54166;53.172;-6.552;2022-11-12T07:17:18;99482.44;;;18.79;41.80
39715;BME280;54166;53.172;-6.552;2022-11-12T07:19:45;99482.29;;;19.11;41.76
39715;BME280;54166;53.172;-6.552;2022-11-12T07:22:12;99484.52;;;19.11;41.76
39715;BME280;54166;53.172;-6.552;2022-11-12T07:24:39;99493.43;;;18.75;41.77
39715;BME280;54166;53.172;-6.552;2022-11-12T07:27:06;99493.56;;;19.08;41.72
39715;BME280;54166;53.172;-6.552;2022-11-12T07:29:33;99501.69;;;19.48;41.75
39715;BME280;54166;53.172;-6.552;2022-11-12T07:32:00;99505.54;;;19.08;41.73
39715;BME280;54166;53.172;-6.552;2022-11-12T07:34:27;99510.73;;;19.06;41.77
39715;BME280;54166;53.172;-6.552;2022-11-12T07:36:54;99512.24;;;18.75;41.70
39715;BME280;54166;53.172;-6.552;2022-11-12T07:39:20;99512.44;;;18.75;41.67
39715;BME280;54166;53.172;-6.552;2022-11-12T07:41:47;99517.70;;;19.08;41.70
39715;BME280;54166;53.172;-6.552;2022-11-12T07:44:14;99516.27;;;19.08;41.70
39715;BME280;54166;53.172;-6.552;2022-11-12T07:46:41;99532.40;;;18.74;41.70
39715;BME280;54166;53.172;-6.552;2022-11-12T07:49:09;99526.36;;;19.07;41.73
39715;BME280;54166;53.172;-6.552;2022-11-12T07:51:36;99529.63;;;19.07;41.76
39715;BME280;54166;53.172;-6.552;2022-11-12T07:54:03;99533.47;;;19.07;41.71
39715;BME280;54166;53.172;-6.552;2022-11-12T07:56:30;99540.20;;;19.07;41.66
39715;BME280;54166;53.172;-6.552;2022-11-12T07:58:57;99542.49;;;19.07;41.70
39715;BME280;54166;53.172;-6.552;2022-11-12T08:01:30;99536.78;;;18.73;41.70
39715;BME280;54166;53.172;-6.552;2022-11-12T08:03:58;99545.55;;;18.70;41.64
39715;BME280;54166;53.172;-6.552;2022-11-12T08:06:25;99546.83;;;19.04;41.69
39715;BME280;54166;53.172;-6.552;2022-11-12T08:08:53;99547.28;;;19.04;41.71
39715;BME280;54166;53.172;-6.552;2022-11-12T08:11:21;99542.76;;;18.70;41.68
39715;BME280;54166;53.172;-6.552;2022-11-12T08:13:49;99548.94;;;19.03;41.61
39715;BME280;54166;53.172;-6.552;2022-11-12T08:16:16;99544.98;;;19.04;41.56
39715;BME280;54166;53.172;-6.552;2022-11-12T08:18:45;99551.21;;;19.04;41.55
39715;BME280;54166;53.172;-6.552;2022-11-12T08:21:15;99546.58;;;18.70;41.54
39715;BME280;54166;53.172;-6.552;2022-11-12T08:23:43;99548.09;;;19.02;41.61
39715;BME280;54166;53.172;-6.552;2022-11-12T08:26:12;99552.21;;;19.01;41.61
39715;BME280;54166;53.172;-6.552;2022-11-12T08:28:40;99555.68;;;19.41;41.64
39715;BME280;54166;53.172;-6.552;2022-11-12T08:31:09;99560.93;;;18.68;41.64
39715;BME280;54166;53.172;-6.552;2022-11-12T08:33:38;99563.51;;;19.02;41.66
39715;BME280;54166;53.172;-6.552;2022-11-12T08:36:06;99577.12;;;18.68;41.67
39715;BME280;54166;53.172;-6.552;2022-11-12T08:38:35;99580.56;;;19.01;41.64
39715;BME280;54166;53.172;-6.552;2022-11-12T08:41:04;99584.59;;;19.01;41.63
39715;BME280;54166;53.172;-6.552;2022-11-12T08:43:32;99581.39;;;19.00;41.62
39715;BME280;54166;53.172;-6.552;2022-11-12T08:46:00;99586.88;;;19.00;41.63
39715;BME280;54166;53.172;-6.552;2022-11-12T08:48:29;99597.48;;;19.00;41.58
39715;BME280;54166;53.172;-6.552;2022-11-12T08:50:57;99595.34;;;19.00;41.53
39715;BME280;54166;53.172;-6.552;2022-11-12T08:53:27;99599.68;;;18.98;41.55
39715;BME280;54166;53.172;-6.552;2022-11-12T08:55:54;99603.19;;;18.98;41.54
39715;BME280;54166;53.172;-6.552;2022-11-12T08:58:22;99601.59;;;18.99;41.52
39715;BME280;54166;53.172;-6.552;2022-11-12T09:00:49;99601.43;;;19.00;41.53
39715;BME280;54166;53.172;-6.552;2022-11-12T09:03:19;99609.44;;;19.00;41.52
39715;BME280;54166;53.172;-6.552;2022-11-12T09:05:48;99607.13;;;18.98;41.45
39715;BME280;54166;53.172;-6.552;2022-11-12T09:08:16;99605.78;;;18.98;41.42
39715;BME280;54166;53.172;-6.552;2022-11-12T09:10:45;99608.63;;;18.63;41.46
39715;BME280;54166;53.172;-6.552;2022-11-12T09:13:13;99611.95;;;18.99;41.42
39715;BME280;54166;53.172;-6.552;2022-11-12T09:15:40;99608.04;;;18.98;41.40
39715;BME280;54166;53.172;-6.552;2022-11-12T09:18:12;99601.92;;;18.98;41.39
39715;BME280;54166;53.172;-6.552;2022-11-12T09:20:40;99601.43;;;18.97;41.32
39715;BME280;54166;53.172;-6.552;2022-11-12T09:23:09;99600.59;;;18.97;41.39
39715;BME280;54166;53.172;-6.552;2022-11-12T09:25:37;99603.38;;;18.95;41.40
39715;BME280;54166;53.172;-6.552;2022-11-12T09:28:07;99601.75;;;18.95;41.41
39715;BME280;54166;53.172;-6.552;2022-11-12T09:30:36;99601.17;;;18.96;41.35
39715;BME280;54166;53.172;-6.552;2022-11-12T09:33:04;99599.00;;;18.96;41.34
39715;BME280;54166;53.172;-6.552;2022-11-12T09:35:31;99600.74;;;18.97;41.32
39715;BME280;54166;53.172;-6.552;2022-11-12T09:37:59;99596.15;;;18.95;41.32
39715;BME280;54166;53.172;-6.552;2022-11-12T09:40:36;99591.99;;;18.97;41.30
39715;BME280;54166;53.172;-6.552;2022-11-12T09:43:15;99593.15;;;18.61;41.33
39715;BME280;54166;53.172;-6.552;2022-11-12T09:45:45;99592.49;;;18.96;41.37
39715;BME280;54166;53.172;-6.552;2022-11-12T09:48:17;99593.77;;;18.63;41.29
39715;BME280;54166;53.172;-6.552;2022-11-12T09:50:54;99592.67;;;18.95;41.31
39715;BME280;54166;53.172;-6.552;2022-11-12T09:53:29;99592.70;;;18.61;41.25
39715;BME280;54166;53.172;-6.552;2022-11-12T09:56:00;99597.57;;;18.93;41.32
39715;BME280;54166;53.172;-6.552;2022-11-12T09:58:31;99594.60;;;18.93;41.37
39715;BME280;54166;53.172;-6.552;2022-11-12T10:01:16;99593.82;;;18.95;41.28
39715;BME280;54166;53.172;-6.552;2022-11-12T10:03:53;99593.34;;;18.58;41.29
39715;BME280;54166;53.172;-6.552;2022-11-12T10:06:26;99592.56;;;18.93;41.18
39715;BME280;54166;53.172;-6.552;2022-11-12T10:09:01;99596.64;;;18.97;41.17
39715;BME280;54166;53.172;-6.552;2022-11-12T10:11:46;99596.21;;;18.98;41.10
39715;BME280;54166;53.172;-6.552;2022-11-12T10:14:23;99596.80;;;18.97;41.10
39715;BME280;54166;53.172;-6.552;2022-11-12T10:17:03;99598.46;;;18.95;41.08
39715;BME280;54166;53.172;-6.552;2022-11-12T10:19:45;99605.67;;;18.98;41.39
39715;BME280;54166;53.172;-6.552;2022-11-12T10:22:25;99605.89;;;19.01;41.12
39715;BME280;54166;53.172;-6.552;2022-11-12T10:25:12;99605.52;;;19.05;41.09
39715;BME280;54166;53.172;-6.552;2022-11-12T10:27:41;99603.63;;;19.08;41.21
39715;BME280;54166;53.172;-6.552;2022-11-12T10:30:15;99605.15;;;19.14;41.40
39715;BME280;54166;53.172;-6.552;2022-11-12T10:32:45;99599.36;;;19.19;41.26
39715;BME280;54166;53.172;-6.552;2022-11-12T10:35:16;99594.31;;;19.24;41.24
39715;BME280;54166;53.172;-6.552;2022-11-12T10:37:49;99593.19;;;19.31;41.23
39715;BME280;54166;53.172;-6.552;2022-11-12T10:40:34;99596.29;;;19.37;41.17
39715;BME280;54166;53.172;-6.552;2022-11-12T10:43:04;99594.96;;;19.06;41.83
39715;BME280;54166;53.172;-6.552;2022-11-12T10:45:32;99591.60;;;19.60;41.40
39715;BME280;54166;53.172;-6.552;2022-11-12T10:48:00;99593.99;;;19.94;41.18
39715;BME280;54166;53.172;-6.552;2022-11-12T10:50:31;99586.66;;;19.32;40.90
39715;BME280;54166;53.172;-6.552;2022-11-12T10:53:02;99585.61;;;19.32;40.90
39715;BME280;54166;53.172;-6.552;2022-11-12T10:55:32;99578.16;;;18.91;40.74
39715;BME280;54166;53.172;-6.552;2022-11-12T10:58:04;99570.01;;;19.34;40.81
39715;BME280;54166;53.172;-6.552;2022-11-12T11:00:32;99573.48;;;19.65;40.74
39715;BME280;54166;53.172;-6.552;2022-11-12T11:03:04;99565.09;;;19.90;40.53
39715;BME280;54166;53.172;-6.552;2022-11-12T11:05:36;99568.62;;;19.50;40.47
39715;BME280;54166;53.172;-6.552;2022-11-12T11:08:04;99559.09;;;19.90;40.46
39715;BME280;54166;53.172;-6.552;2022-11-12T11:10:34;99563.88;;;19.88;40.32
39715;BME280;54166;53.172;-6.552;2022-11-12T11:13:18;99556.75;;;19.82;40.02
39715;BME280;54166;53.172;-6.552;2022-11-12T11:16:03;99556.35;;;19.40;39.92
39715;BME280;54166;53.172;-6.552;2022-11-12T11:18:33;99551.27;;;19.32;39.94
39715;BME280;54166;53.172;-6.552;2022-11-12T11:21:07;99549.44;;;19.60;39.83
39715;BME280;54166;53.172;-6.552;2022-11-12T11:23:44;99545.88;;;19.53;39.84
39715;BME280;54166;53.172;-6.552;2022-11-12T11:26:26;99541.31;;;19.79;39.51
39715;BME280;54166;53.172;-6.552;2022-11-12T11:29:05;99534.00;;;20.08;39.25
39715;BME280;54166;53.172;-6.552;2022-11-12T11:31:41;99536.05;;;20.13;39.14
39715;BME280;54166;53.172;-6.552;2022-11-12T11:34:25;99536.92;;;19.68;39.10
39715;BME280;54166;53.172;-6.552;2022-11-12T11:37:02;99538.43;;;20.47;38.75
39715;BME280;54166;53.172;-6.552;2022-11-12T11:39:38;99527.22;;;20.36;38.33
39715;BME280;54166;53.172;-6.552;2022-11-12T11:42:16;99529.07;;;20.36;38.34
39715;BME280;54166;53.172;-6.552;2022-11-12T11:44:56;99527.31;;;20.43;38.23
39715;BME280;54166;53.172;-6.552;2022-11-12T11:47:36;99518.11;;;20.39;38.16
39715;BME280;54166;53.172;-6.552;2022-11-12T11:50:16;99513.23;;;20.16;38.28
39715;BME280;54166;53.172;-6.552;2022-11-12T11:52:50;99517.17;;;20.01;38.36
39715;BME280;54166;53.172;-6.552;2022-11-12T11:55:32;99508.65;;;20.26;38.48
39715;BME280;54166;53.172;-6.552;2022-11-12T11:58:10;99503.17;;;20.11;38.61
39715;BME280;54166;53.172;-6.552;2022-11-12T12:00:46;99508.39;;;20.00;38.74
39715;BME280;54166;53.172;-6.552;2022-11-12T12:03:18;99503.85;;;19.53;38.89
39715;BME280;54166;53.172;-6.552;2022-11-12T12:06:01;99494.45;;;19.85;38.99
39715;BME280;54166;53.172;-6.552;2022-11-12T12:08:39;99489.84;;;19.71;39.02
39715;BME280;54166;53.172;-6.552;2022-11-12T12:11:13;99493.24;;;19.62;39.16
39715;BME280;54166;53.172;-6.552;2022-11-12T12:13:55;99481.82;;;19.58;39.34
39715;BME280;54166;53.172;-6.552;2022-11-12T12:16:38;99477.22;;;19.49;39.44
39715;BME280;54166;53.172;-6.552;2022-11-12T12:19:21;99474.17;;;19.51;39.43
39715;BME280;54166;53.172;-6.552;2022-11-12T12:21:55;99471.77;;;19.44;39.57
39715;BME280;54166;53.172;-6.552;2022-11-12T12:24:26;99473.22;;;19.75;39.77
39715;BME280;54166;53.172;-6.552;2022-11-12T12:26:59;99468.67;;;19.38;39.95
39715;BME280;54166;53.172;-6.552;2022-11-12T12:29:33;99460.07;;;19.71;40.07
39715;BME280;54166;53.172;-6.552;2022-11-12T12:32:10;99460.13;;;19.36;40.09
39715;BME280;54166;53.172;-6.552;2022-11-12T12:34:43;99458.25;;;20.00;40.09
39715;BME280;54166;53.172;-6.552;2022-11-12T12:37:19;99449.84;;;19.33;40.26
39715;BME280;54166;53.172;-6.552;2022-11-12T12:39:52;99442.41;;;19.33;40.17
39715;BME280;54166;53.172;-6.552;2022-11-12T12:42:26;99445.20;;;19.29;40.17
39715;BME280;54166;53.172;-6.552;2022-11-12T12:44:59;99434.37;;;19.63;40.18
39715;BME280;54166;53.172;-6.552;2022-11-12T12:47:29;99431.52;;;19.31;40.29
39715;BME280;54166;53.172;-6.552;2022-11-12T12:49:59;99431.65;;;20.01;40.15
39715;BME280;54166;53.172;-6.552;2022-11-12T12:52:30;99425.65;;;19.34;40.12
39715;BME280;54166;53.172;-6.552;2022-11-12T12:55:42;99414.88;;;19.28;40.23
39715;BME280;54166;53.172;-6.552;2022-11-12T12:58:22;99406.27;;;19.62;39.92
39715;BME280;54166;53.172;-6.552;2022-11-12T13:00:53;99399.55;;;19.59;40.05
39715;BME280;54166;53.172;-6.552;2022-11-12T13:03:58;99391.78;;;20.71;40.03
39715;BME280;54166;53.172;-6.552;2022-11-12T13:06:28;99392.22;;;19.62;40.30